sensor_id;sensor_type;location;lat;lon;timestamp;temperature;humidity
32787;DHT22;19139;49.372;8.580;2022-10-16T00:00:21;21.40;96.10
32787;DHT22;19139;49.372;8.580;2022-10-16T00:02:47;21.40;96.10
32787;DHT22;19139;49.372;8.580;2022-10-16T00:05:19;21.40;96.10
32787;DHT22;19139;49.372;8.580;2022-10-16T00:07:50;21.40;96.10
32787;DHT22;19139;49.372;8.580;2022-10-16T00:10:17;21.30;96.10
32787;DHT22;19139;49.372;8.580;2022-10-16T00:12:43;21.40;96.10
32787;DHT22;19139;49.372;8.580;2022-10-16T00:15:10;21.30;96.00
32787;DHT22;19139;49.372;8.580;2022-10-16T00:17:36;21.40;96.10
32787;DHT22;19139;49.372;8.580;2022-10-16T00:20:04;21.40;96.10
32787;DHT22;19139;49.372;8.580;2022-10-16T00:22:35;21.40;96.10
32787;DHT22;19139;49.372;8.580;2022-10-16T00:25:02;21.40;96.10
32787;DHT22;19139;49.372;8.580;2022-10-16T00:27:34;21.30;96.10
32787;DHT22;19139;49.372;8.580;2022-10-16T00:30:06;21.40;96.10
32787;DHT22;19139;49.372;8.580;2022-10-16T00:32:34;21.40;96.10
32787;DHT22;19139;49.372;8.580;2022-10-16T00:35:01;21.40;96.10
32787;DHT22;19139;49.372;8.580;2022-10-16T00:37:32;21.40;96.10
32787;DHT22;19139;49.372;8.580;2022-10-16T00:40:04;21.40;96.10
32787;DHT22;19139;49.372;8.580;2022-10-16T00:42:31;21.40;96.10
32787;DHT22;19139;49.372;8.580;2022-10-16T00:45:03;21.40;96.10
32787;DHT22;19139;49.372;8.580;2022-10-16T00:47:42;21.30;96.10
32787;DHT22;19139;49.372;8.580;2022-10-16T00:50:22;21.40;96.10
32787;DHT22;19139;49.372;8.580;2022-10-16T00:52:55;21.30;96.10
32787;DHT22;19139;49.372;8.580;2022-10-16T00:55:23;21.40;96.10
32787;DHT22;19139;49.372;8.580;2022-10-16T00:57:56;21.40;96.10
32787;DHT22;19139;49.372;8.580;2022-10-16T01:00:26;21.30;96.10
32787;DHT22;19139;49.372;8.580;2022-10-16T01:02:58;21.30;96.10
32787;DHT22;19139;49.372;8.580;2022-10-16T01:05:32;21.30;96.10
32787;DHT22;19139;49.372;8.580;2022-10-16T01:08:15;21.40;96.10
32787;DHT22;19139;49.372;8.580;2022-10-16T01:10:54;21.30;96.00
32787;DHT22;19139;49.372;8.580;2022-10-16T01:13:35;21.30;96.10
32787;DHT22;19139;49.372;8.580;2022-10-16T01:16:13;21.30;96.30
32787;DHT22;19139;49.372;8.580;2022-10-16T01:19:12;21.40;96.10
32787;DHT22;19139;49.372;8.580;2022-10-16T01:21:46;21.30;96.00
32787;DHT22;19139;49.372;8.580;2022-10-16T01:24:20;21.30;96.10
32787;DHT22;19139;49.372;8.580;2022-10-16T01:30:28;21.30;96.00
32787;DHT22;19139;49.372;8.580;2022-10-16T01:32:41;21.40;96.10
32787;DHT22;19139;49.372;8.580;2022-10-16T01:35:23;21.30;96.00
32787;DHT22;19139;49.372;8.580;2022-10-16T01:38:00;21.30;96.00
32787;DHT22;19139;49.372;8.580;2022-10-16T01:40:36;21.30;96.00
32787;DHT22;19139;49.372;8.580;2022-10-16T01:43:15;21.30;96.00
32787;DHT22;19139;49.372;8.580;2022-10-16T01:45:44;21.30;96.00
32787;DHT22;19139;49.372;8.580;2022-10-16T01:48:14;21.30;96.00
32787;DHT22;19139;49.372;8.580;2022-10-16T01:50:43;21.30;96.00
32787;DHT22;19139;49.372;8.580;2022-10-16T01:53:15;21.30;96.00
32787;DHT22;19139;49.372;8.580;2022-10-16T01:55:44;21.30;96.00
32787;DHT22;19139;49.372;8.580;2022-10-16T01:58:13;21.30;96.00
32787;DHT22;19139;49.372;8.580;2022-10-16T02:00:46;21.30;96.00
32787;DHT22;19139;49.372;8.580;2022-10-16T02:03:16;21.30;96.00
32787;DHT22;19139;49.372;8.580;2022-10-16T02:05:53;21.30;96.00
32787;DHT22;19139;49.372;8.580;2022-10-16T02:08:27;21.30;95.90
32787;DHT22;19139;49.372;8.580;2022-10-16T02:11:00;21.30;96.00
32787;DHT22;19139;49.372;8.580;2022-10-16T02:13:43;21.30;96.00
32787;DHT22;19139;49.372;8.580;2022-10-16T02:16:12;21.30;96.00
32787;DHT22;19139;49.372;8.580;2022-10-16T02:18:44;21.30;96.00
32787;DHT22;19139;49.372;8.580;2022-10-16T02:21:25;21.30;96.00
32787;DHT22;19139;49.372;8.580;2022-10-16T02:23:57;21.30;95.90
32787;DHT22;19139;49.372;8.580;2022-10-16T02:26:44;21.30;96.00
32787;DHT22;19139;49.372;8.580;2022-10-16T02:29:14;21.30;96.00
32787;DHT22;19139;49.372;8.580;2022-10-16T02:31:46;21.30;95.90
32787;DHT22;19139;49.372;8.580;2022-10-16T02:34:14;21.30;95.90
32787;DHT22;19139;49.372;8.580;2022-10-16T02:36:42;21.30;96.00
32787;DHT22;19139;49.372;8.580;2022-10-16T02:39:15;21.30;96.00
32787;DHT22;19139;49.372;8.580;2022-10-16T02:41:42;21.30;96.00
32787;DHT22;19139;49.372;8.580;2022-10-16T02:44:14;21.30;95.90
32787;DHT22;19139;49.372;8.580;2022-10-16T02:46:45;21.30;95.90
32787;DHT22;19139;49.372;8.580;2022-10-16T02:49:12;21.30;95.90
32787;DHT22;19139;49.372;8.580;2022-10-16T02:51:43;21.30;96.00
32787;DHT22;19139;49.372;8.580;2022-10-16T02:54:15;21.30;96.00
32787;DHT22;19139;49.372;8.580;2022-10-16T02:56:41;21.30;96.00
32787;DHT22;19139;49.372;8.580;2022-10-16T02:59:13;21.30;96.00
32787;DHT22;19139;49.372;8.580;2022-10-16T03:01:44;21.30;96.00
32787;DHT22;19139;49.372;8.580;2022-10-16T03:04:11;21.30;95.90
32787;DHT22;19139;49.372;8.580;2022-10-16T03:06:42;21.30;96.00
32787;DHT22;19139;49.372;8.580;2022-10-16T03:09:14;21.30;95.90
32787;DHT22;19139;49.372;8.580;2022-10-16T03:11:45;21.30;95.90
32787;DHT22;19139;49.372;8.580;2022-10-16T03:14:13;21.30;95.90
32787;DHT22;19139;49.372;8.580;2022-10-16T03:16:44;21.30;95.90
32787;DHT22;19139;49.372;8.580;2022-10-16T03:19:11;21.30;95.90
32787;DHT22;19139;49.372;8.580;2022-10-16T03:21:42;21.30;95.90
32787;DHT22;19139;49.372;8.580;2022-10-16T03:24:14;21.30;96.00
32787;DHT22;19139;49.372;8.580;2022-10-16T03:26:45;21.30;95.90
32787;DHT22;19139;49.372;8.580;2022-10-16T03:29:12;21.30;96.00
32787;DHT22;19139;49.372;8.580;2022-10-16T03:31:43;21.30;95.90
32787;DHT22;19139;49.372;8.580;2022-10-16T03:34:15;21.30;96.00
32787;DHT22;19139;49.372;8.580;2022-10-16T03:36:41;21.30;96.00
32787;DHT22;19139;49.372;8.580;2022-10-16T03:39:13;21.30;95.90
32787;DHT22;19139;49.372;8.580;2022-10-16T03:41:44;21.30;95.90
32787;DHT22;19139;49.372;8.580;2022-10-16T03:44:13;21.30;95.90
32787;DHT22;19139;49.372;8.580;2022-10-16T03:46:44;21.30;95.90
32787;DHT22;19139;49.372;8.580;2022-10-16T03:49:11;21.30;95.90
32787;DHT22;19139;49.372;8.580;2022-10-16T03:51:43;21.30;95.90
32787;DHT22;19139;49.372;8.580;2022-10-16T03:54:14;21.30;95.90
32787;DHT22;19139;49.372;8.580;2022-10-16T03:56:41;21.30;95.90
32787;DHT22;19139;49.372;8.580;2022-10-16T03:59:12;21.30;95.90
32787;DHT22;19139;49.372;8.580;2022-10-16T04:01:44;21.30;95.90
32787;DHT22;19139;49.372;8.580;2022-10-16T04:04:15;21.30;95.90
32787;DHT22;19139;49.372;8.580;2022-10-16T04:06:42;21.30;95.90
32787;DHT22;19139;49.372;8.580;2022-10-16T04:09:13;21.30;95.90
32787;DHT22;19139;49.372;8.580;2022-10-16T04:11:45;21.30;95.90
32787;DHT22;19139;49.372;8.580;2022-10-16T04:14:11;21.30;95.90
32787;DHT22;19139;49.372;8.580;2022-10-16T04:16:38;21.30;95.90
32787;DHT22;19139;49.372;8.580;2022-10-16T04:19:10;21.30;95.90
32787;DHT22;19139;49.372;8.580;2022-10-16T04:21:41;21.30;95.90
32787;DHT22;19139;49.372;8.580;2022-10-16T04:24:13;21.30;95.90
32787;DHT22;19139;49.372;8.580;2022-10-16T04:26:44;21.30;95.90
32787;DHT22;19139;49.372;8.580;2022-10-16T04:29:11;21.30;95.90
32787;DHT22;19139;49.372;8.580;2022-10-16T04:31:42;21.30;95.90
32787;DHT22;19139;49.372;8.580;2022-10-16T04:34:14;21.30;96.20
32787;DHT22;19139;49.372;8.580;2022-10-16T04:36:47;21.30;95.90
32787;DHT22;19139;49.372;8.580;2022-10-16T04:39:19;21.30;95.90
32787;DHT22;19139;49.372;8.580;2022-10-16T04:41:51;21.30;95.90
32787;DHT22;19139;49.372;8.580;2022-10-16T04:44:22;21.30;95.90
32787;DHT22;19139;49.372;8.580;2022-10-16T04:46:54;21.30;95.90
32787;DHT22;19139;49.372;8.580;2022-10-16T04:49:25;21.30;95.80
32787;DHT22;19139;49.372;8.580;2022-10-16T04:51:52;21.30;95.90
32787;DHT22;19139;49.372;8.580;2022-10-16T04:54:23;21.30;95.80
32787;DHT22;19139;49.372;8.580;2022-10-16T04:56:55;21.30;95.90
32787;DHT22;19139;49.372;8.580;2022-10-16T04:59:22;21.30;95.90
32787;DHT22;19139;49.372;8.580;2022-10-16T05:01:54;21.30;95.80
32787;DHT22;19139;49.372;8.580;2022-10-16T05:04:25;21.30;95.90
32787;DHT22;19139;49.372;8.580;2022-10-16T05:06:52;21.30;95.80
32787;DHT22;19139;49.372;8.580;2022-10-16T05:09:23;21.30;95.80
32787;DHT22;19139;49.372;8.580;2022-10-16T05:11:55;21.30;95.80
32787;DHT22;19139;49.372;8.580;2022-10-16T05:14:21;21.30;95.80
32787;DHT22;19139;49.372;8.580;2022-10-16T05:16:53;21.20;95.80
32787;DHT22;19139;49.372;8.580;2022-10-16T05:19:24;21.20;95.80
32787;DHT22;19139;49.372;8.580;2022-10-16T05:21:54;21.30;95.90
32787;DHT22;19139;49.372;8.580;2022-10-16T05:24:25;21.30;95.90
32787;DHT22;19139;49.372;8.580;2022-10-16T05:26:52;21.20;95.80
32787;DHT22;19139;49.372;8.580;2022-10-16T05:29:19;21.20;95.80
32787;DHT22;19139;49.372;8.580;2022-10-16T05:31:46;21.20;95.80
32787;DHT22;19139;49.372;8.580;2022-10-16T05:34:12;21.30;95.90
32787;DHT22;19139;49.372;8.580;2022-10-16T05:36:39;21.20;95.80
32787;DHT22;19139;49.372;8.580;2022-10-16T05:39:05;21.30;95.80
32787;DHT22;19139;49.372;8.580;2022-10-16T05:41:32;21.20;95.80
32787;DHT22;19139;49.372;8.580;2022-10-16T05:43:59;21.30;95.90
32787;DHT22;19139;49.372;8.580;2022-10-16T05:46:25;21.30;95.90
32787;DHT22;19139;49.372;8.580;2022-10-16T05:48:52;21.30;95.90
32787;DHT22;19139;49.372;8.580;2022-10-16T05:51:19;21.30;95.90
32787;DHT22;19139;49.372;8.580;2022-10-16T05:53:46;21.20;96.20
32787;DHT22;19139;49.372;8.580;2022-10-16T05:56:12;21.30;95.90
32787;DHT22;19139;49.372;8.580;2022-10-16T05:58:39;21.30;95.80
32787;DHT22;19139;49.372;8.580;2022-10-16T06:01:17;21.30;95.80
32787;DHT22;19139;49.372;8.580;2022-10-16T06:03:44;21.30;95.90
32787;DHT22;19139;49.372;8.580;2022-10-16T06:06:16;21.20;95.80
32787;DHT22;19139;49.372;8.580;2022-10-16T06:08:44;21.30;95.80
32787;DHT22;19139;49.372;8.580;2022-10-16T06:11:17;21.30;95.80
32787;DHT22;19139;49.372;8.580;2022-10-16T06:13:44;21.20;95.80
32787;DHT22;19139;49.372;8.580;2022-10-16T06:16:12;21.20;95.80
32787;DHT22;19139;49.372;8.580;2022-10-16T06:18:39;21.20;95.80
32787;DHT22;19139;49.372;8.580;2022-10-16T06:21:11;21.30;95.80
32787;DHT22;19139;49.372;8.580;2022-10-16T06:23:38;21.20;95.80
32787;DHT22;19139;49.372;8.580;2022-10-16T06:26:07;21.20;95.80
32787;DHT22;19139;49.372;8.580;2022-10-16T06:28:34;21.30;95.90
32787;DHT22;19139;49.372;8.580;2022-10-16T06:31:06;21.20;95.80
32787;DHT22;19139;49.372;8.580;2022-10-16T06:33:34;21.20;95.90
32787;DHT22;19139;49.372;8.580;2022-10-16T06:38:36;21.20;95.90
32787;DHT22;19139;49.372;8.580;2022-10-16T06:41:03;21.20;95.90
32787;DHT22;19139;49.372;8.580;2022-10-16T06:43:30;21.20;95.90
32787;DHT22;19139;49.372;8.580;2022-10-16T06:46:02;21.30;95.90
32787;DHT22;19139;49.372;8.580;2022-10-16T06:48:29;21.30;95.90
32787;DHT22;19139;49.372;8.580;2022-10-16T06:53:28;21.20;95.80
32787;DHT22;19139;49.372;8.580;2022-10-16T06:56:27;21.20;95.90
32787;DHT22;19139;49.372;8.580;2022-10-16T06:58:56;21.30;95.90
32787;DHT22;19139;49.372;8.580;2022-10-16T07:01:23;21.30;96.20
32787;DHT22;19139;49.372;8.580;2022-10-16T07:03:50;21.30;95.80
32787;DHT22;19139;49.372;8.580;2022-10-16T07:06:19;21.30;95.80
32787;DHT22;19139;49.372;8.580;2022-10-16T07:08:47;21.30;95.80
32787;DHT22;19139;49.372;8.580;2022-10-16T07:11:16;21.30;95.80
32787;DHT22;19139;49.372;8.580;2022-10-16T07:13:44;21.30;95.80
32787;DHT22;19139;49.372;8.580;2022-10-16T07:16:20;21.30;95.80
32787;DHT22;19139;49.372;8.580;2022-10-16T07:18:47;21.30;95.80
32787;DHT22;19139;49.372;8.580;2022-10-16T07:21:18;21.30;95.80
32787;DHT22;19139;49.372;8.580;2022-10-16T07:23:46;21.30;95.80
32787;DHT22;19139;49.372;8.580;2022-10-16T07:26:16;21.30;95.80
32787;DHT22;19139;49.372;8.580;2022-10-16T07:28:43;21.30;95.80
32787;DHT22;19139;49.372;8.580;2022-10-16T07:31:12;21.30;95.80
32787;DHT22;19139;49.372;8.580;2022-10-16T07:33:41;21.30;95.80
32787;DHT22;19139;49.372;8.580;2022-10-16T07:36:09;21.30;95.80
32787;DHT22;19139;49.372;8.580;2022-10-16T07:38:42;21.30;95.80
32787;DHT22;19139;49.372;8.580;2022-10-16T07:41:14;21.30;95.80
32787;DHT22;19139;49.372;8.580;2022-10-16T07:43:49;21.30;95.80
32787;DHT22;19139;49.372;8.580;2022-10-16T07:46:16;21.30;95.80
32787;DHT22;19139;49.372;8.580;2022-10-16T07:48:43;21.30;95.80
32787;DHT22;19139;49.372;8.580;2022-10-16T07:51:15;21.30;95.80
32787;DHT22;19139;49.372;8.580;2022-10-16T07:53:42;21.30;95.80
32787;DHT22;19139;49.372;8.580;2022-10-16T07:56:09;21.30;95.80
32787;DHT22;19139;49.372;8.580;2022-10-16T07:58:36;21.30;95.80
32787;DHT22;19139;49.372;8.580;2022-10-16T08:01:07;21.30;95.80
32787;DHT22;19139;49.372;8.580;2022-10-16T08:03:34;21.30;95.80
32787;DHT22;19139;49.372;8.580;2022-10-16T08:06:01;21.30;95.80
32787;DHT22;19139;49.372;8.580;2022-10-16T08:08:28;21.30;95.80
32787;DHT22;19139;49.372;8.580;2022-10-16T08:10:55;21.30;95.80
32787;DHT22;19139;49.372;8.580;2022-10-16T08:13:22;21.30;95.80
32787;DHT22;19139;49.372;8.580;2022-10-16T08:15:48;21.30;96.10
32787;DHT22;19139;49.372;8.580;2022-10-16T08:18:15;21.30;95.80
32787;DHT22;19139;49.372;8.580;2022-10-16T08:20:42;21.30;95.80
32787;DHT22;19139;49.372;8.580;2022-10-16T08:23:11;21.30;95.80
32787;DHT22;19139;49.372;8.580;2022-10-16T08:25:39;21.30;95.80
32787;DHT22;19139;49.372;8.580;2022-10-16T08:28:07;21.40;95.80
32787;DHT22;19139;49.372;8.580;2022-10-16T08:30:34;21.30;95.80
32787;DHT22;19139;49.372;8.580;2022-10-16T08:33:01;21.30;96.10
32787;DHT22;19139;49.372;8.580;2022-10-16T08:35:32;21.40;95.80
32787;DHT22;19139;49.372;8.580;2022-10-16T08:37:59;21.30;95.80
32787;DHT22;19139;49.372;8.580;2022-10-16T08:40:28;21.30;95.70
32787;DHT22;19139;49.372;8.580;2022-10-16T08:43:23;21.40;95.80
32787;DHT22;19139;49.372;8.580;2022-10-16T08:48:54;21.30;95.70
32787;DHT22;19139;49.372;8.580;2022-10-16T08:51:26;21.40;95.70
32787;DHT22;19139;49.372;8.580;2022-10-16T08:53:56;21.40;95.80
32787;DHT22;19139;49.372;8.580;2022-10-16T08:56:25;21.40;95.80
32787;DHT22;19139;49.372;8.580;2022-10-16T08:58:52;21.30;95.70
32787;DHT22;19139;49.372;8.580;2022-10-16T09:01:38;21.30;95.70
32787;DHT22;19139;49.372;8.580;2022-10-16T09:07:39;21.40;95.70
32787;DHT22;19139;49.372;8.580;2022-10-16T09:10:25;21.40;95.80
32787;DHT22;19139;49.372;8.580;2022-10-16T09:13:08;21.40;95.70
32787;DHT22;19139;49.372;8.580;2022-10-16T09:15:51;21.40;95.80
32787;DHT22;19139;49.372;8.580;2022-10-16T09:18:41;21.40;95.80
32787;DHT22;19139;49.372;8.580;2022-10-16T09:21:19;21.40;95.80
32787;DHT22;19139;49.372;8.580;2022-10-16T09:23:54;21.40;95.70
32787;DHT22;19139;49.372;8.580;2022-10-16T09:26:23;21.40;95.80
32787;DHT22;19139;49.372;8.580;2022-10-16T09:28:54;21.40;95.80
32787;DHT22;19139;49.372;8.580;2022-10-16T09:31:22;21.40;95.70
32787;DHT22;19139;49.372;8.580;2022-10-16T09:33:53;21.40;95.70
32787;DHT22;19139;49.372;8.580;2022-10-16T09:36:23;21.40;95.70
32787;DHT22;19139;49.372;8.580;2022-10-16T09:39:10;21.40;95.70
32787;DHT22;19139;49.372;8.580;2022-10-16T09:41:43;21.40;95.70
32787;DHT22;19139;49.372;8.580;2022-10-16T09:46:49;21.40;95.70
32787;DHT22;19139;49.372;8.580;2022-10-16T09:49:24;21.40;95.70
32787;DHT22;19139;49.372;8.580;2022-10-16T09:52:02;21.40;95.70
32787;DHT22;19139;49.372;8.580;2022-10-16T09:54:29;21.40;95.70
32787;DHT22;19139;49.372;8.580;2022-10-16T09:57:04;21.40;95.70
32787;DHT22;19139;49.372;8.580;2022-10-16T09:59:32;21.40;95.70
32787;DHT22;19139;49.372;8.580;2022-10-16T10:02:03;21.40;95.70
32787;DHT22;19139;49.372;8.580;2022-10-16T10:04:40;21.40;95.70
32787;DHT22;19139;49.372;8.580;2022-10-16T10:07:38;21.40;95.70
32787;DHT22;19139;49.372;8.580;2022-10-16T10:10:04;21.40;95.70
32787;DHT22;19139;49.372;8.580;2022-10-16T10:12:32;21.40;95.70
32787;DHT22;19139;49.372;8.580;2022-10-16T10:17:32;21.40;95.70
32787;DHT22;19139;49.372;8.580;2022-10-16T10:20:00;21.50;95.70
32787;DHT22;19139;49.372;8.580;2022-10-16T10:25:15;21.50;95.70
32787;DHT22;19139;49.372;8.580;2022-10-16T10:33:55;21.50;95.70
32787;DHT22;19139;49.372;8.580;2022-10-16T10:36:30;21.50;95.70
32787;DHT22;19139;49.372;8.580;2022-10-16T10:39:15;21.50;95.70
32787;DHT22;19139;49.372;8.580;2022-10-16T10:42:17;21.50;95.70
32787;DHT22;19139;49.372;8.580;2022-10-16T10:53:52;21.50;95.70
32787;DHT22;19139;49.372;8.580;2022-10-16T10:56:42;21.60;95.70
32787;DHT22;19139;49.372;8.580;2022-10-16T11:02:05;21.60;95.70
32787;DHT22;19139;49.372;8.580;2022-10-16T11:09:57;21.60;95.70
32787;DHT22;19139;49.372;8.580;2022-10-16T11:12:31;21.60;95.70
32787;DHT22;19139;49.372;8.580;2022-10-16T11:15:25;21.60;95.70
32787;DHT22;19139;49.372;8.580;2022-10-16T11:18:05;21.60;95.70
32787;DHT22;19139;49.372;8.580;2022-10-16T11:23:23;21.60;95.80
32787;DHT22;19139;49.372;8.580;2022-10-16T11:25:52;21.60;95.80
32787;DHT22;19139;49.372;8.580;2022-10-16T11:28:28;21.60;95.80
32787;DHT22;19139;49.372;8.580;2022-10-16T11:31:19;21.60;95.70
32787;DHT22;19139;49.372;8.580;2022-10-16T11:33:55;21.60;95.70
32787;DHT22;19139;49.372;8.580;2022-10-16T11:36:44;21.60;95.70
32787;DHT22;19139;49.372;8.580;2022-10-16T11:39:26;21.60;95.80
32787;DHT22;19139;49.372;8.580;2022-10-16T11:50:54;21.60;95.80
32787;DHT22;19139;49.372;8.580;2022-10-16T11:55:54;21.60;95.80
32787;DHT22;19139;49.372;8.580;2022-10-16T11:58:31;21.60;95.80
32787;DHT22;19139;49.372;8.580;2022-10-16T12:03:59;21.60;95.70
32787;DHT22;19139;49.372;8.580;2022-10-16T12:06:40;21.70;95.70
32787;DHT22;19139;49.372;8.580;2022-10-16T12:11:50;21.70;95.70
32787;DHT22;19139;49.372;8.580;2022-10-16T12:14:37;21.70;95.70
32787;DHT22;19139;49.372;8.580;2022-10-16T12:17:35;21.70;95.70
32787;DHT22;19139;49.372;8.580;2022-10-16T12:22:48;21.60;95.70
32787;DHT22;19139;49.372;8.580;2022-10-16T12:25:22;21.70;95.70
32787;DHT22;19139;49.372;8.580;2022-10-16T12:30:34;21.70;95.70
32787;DHT22;19139;49.372;8.580;2022-10-16T12:33:06;21.70;95.70
32787;DHT22;19139;49.372;8.580;2022-10-16T12:35:44;21.70;95.70
32787;DHT22;19139;49.372;8.580;2022-10-16T12:41:07;21.70;95.70
32787;DHT22;19139;49.372;8.580;2022-10-16T12:43:38;21.70;95.60
32787;DHT22;19139;49.372;8.580;2022-10-16T12:48:35;21.70;95.60
32787;DHT22;19139;49.372;8.580;2022-10-16T12:54:14;21.70;95.60
32787;DHT22;19139;49.372;8.580;2022-10-16T12:59:56;21.70;95.60
32787;DHT22;19139;49.372;8.580;2022-10-16T13:09:04;21.70;95.60
32787;DHT22;19139;49.372;8.580;2022-10-16T13:12:22;21.70;95.60
32787;DHT22;19139;49.372;8.580;2022-10-16T13:21:08;21.70;95.70
32787;DHT22;19139;49.372;8.580;2022-10-16T13:26:47;21.70;95.70
32787;DHT22;19139;49.372;8.580;2022-10-16T13:29:21;21.70;95.70
32787;DHT22;19139;49.372;8.580;2022-10-16T13:31:53;21.70;95.70
32787;DHT22;19139;49.372;8.580;2022-10-16T13:34:21;21.70;95.70
32787;DHT22;19139;49.372;8.580;2022-10-16T13:36:53;21.70;95.70
32787;DHT22;19139;49.372;8.580;2022-10-16T13:39:23;21.70;95.70
32787;DHT22;19139;49.372;8.580;2022-10-16T13:42:11;21.70;95.70
32787;DHT22;19139;49.372;8.580;2022-10-16T13:44:47;21.70;95.70
32787;DHT22;19139;49.372;8.580;2022-10-16T13:50:22;21.70;95.70
32787;DHT22;19139;49.372;8.580;2022-10-16T13:53:06;21.70;95.70
32787;DHT22;19139;49.372;8.580;2022-10-16T13:55:38;21.70;95.70
32787;DHT22;19139;49.372;8.580;2022-10-16T13:58:14;21.70;95.70
32787;DHT22;19139;49.372;8.580;2022-10-16T14:00:53;21.60;95.70
32787;DHT22;19139;49.372;8.580;2022-10-16T14:03:20;21.60;95.70
32787;DHT22;19139;49.372;8.580;2022-10-16T14:05:52;21.60;95.70
32787;DHT22;19139;49.372;8.580;2022-10-16T14:08:20;21.70;95.70
32787;DHT22;19139;49.372;8.580;2022-10-16T14:10:57;21.60;95.70
32787;DHT22;19139;49.372;8.580;2022-10-16T14:13:43;21.60;95.70
32787;DHT22;19139;49.372;8.580;2022-10-16T14:16:16;21.60;95.70
32787;DHT22;19139;49.372;8.580;2022-10-16T14:19:03;21.60;95.70
32787;DHT22;19139;49.372;8.580;2022-10-16T14:21:40;21.60;95.70
32787;DHT22;19139;49.372;8.580;2022-10-16T14:24:31;21.60;95.70
32787;DHT22;19139;49.372;8.580;2022-10-16T14:27:31;21.70;95.70
32787;DHT22;19139;49.372;8.580;2022-10-16T14:30:18;21.60;95.60
32787;DHT22;19139;49.372;8.580;2022-10-16T14:33:01;21.60;95.70
32787;DHT22;19139;49.372;8.580;2022-10-16T14:35:36;21.60;95.70
32787;DHT22;19139;49.372;8.580;2022-10-16T14:38:18;21.60;95.60
32787;DHT22;19139;49.372;8.580;2022-10-16T14:40:50;21.60;95.60
32787;DHT22;19139;49.372;8.580;2022-10-16T14:43:31;21.60;95.60
32787;DHT22;19139;49.372;8.580;2022-10-16T14:46:51;21.70;95.70
32787;DHT22;19139;49.372;8.580;2022-10-16T14:49:03;21.70;95.70
32787;DHT22;19139;49.372;8.580;2022-10-16T14:51:30;21.60;95.70
32787;DHT22;19139;49.372;8.580;2022-10-16T14:54:03;21.70;95.60
32787;DHT22;19139;49.372;8.580;2022-10-16T15:02:16;21.70;95.60
32787;DHT22;19139;49.372;8.580;2022-10-16T15:04:49;21.70;95.60
32787;DHT22;19139;49.372;8.580;2022-10-16T15:07:21;21.70;95.60
32787;DHT22;19139;49.372;8.580;2022-10-16T15:09:52;21.70;95.60
32787;DHT22;19139;49.372;8.580;2022-10-16T15:12:24;21.70;95.60
32787;DHT22;19139;49.372;8.580;2022-10-16T15:14:51;21.70;95.60
32787;DHT22;19139;49.372;8.580;2022-10-16T15:17:22;21.70;95.60
32787;DHT22;19139;49.372;8.580;2022-10-16T15:19:54;21.70;95.60
32787;DHT22;19139;49.372;8.580;2022-10-16T15:22:20;21.70;95.60
32787;DHT22;19139;49.372;8.580;2022-10-16T15:24:54;21.70;95.60
32787;DHT22;19139;49.372;8.580;2022-10-16T15:27:21;21.70;95.60
32787;DHT22;19139;49.372;8.580;2022-10-16T15:29:52;21.70;95.60
32787;DHT22;19139;49.372;8.580;2022-10-16T15:32:23;21.70;95.60
32787;DHT22;19139;49.372;8.580;2022-10-16T15:34:50;21.70;95.60
32787;DHT22;19139;49.372;8.580;2022-10-16T15:37:21;21.70;95.60
32787;DHT22;19139;49.372;8.580;2022-10-16T15:39:53;21.70;95.60
32787;DHT22;19139;49.372;8.580;2022-10-16T15:42:24;21.70;95.60
32787;DHT22;19139;49.372;8.580;2022-10-16T15:44:51;21.70;95.90
32787;DHT22;19139;49.372;8.580;2022-10-16T15:47:23;21.70;95.60
32787;DHT22;19139;49.372;8.580;2022-10-16T15:49:54;21.70;95.60
32787;DHT22;19139;49.372;8.580;2022-10-16T15:52:21;21.70;95.60
32787;DHT22;19139;49.372;8.580;2022-10-16T15:54:52;21.70;95.90
32787;DHT22;19139;49.372;8.580;2022-10-16T15:57:24;21.70;95.60
32787;DHT22;19139;49.372;8.580;2022-10-16T15:59:50;21.70;95.60
32787;DHT22;19139;49.372;8.580;2022-10-16T16:02:22;21.70;95.50
32787;DHT22;19139;49.372;8.580;2022-10-16T16:04:53;21.70;95.60
32787;DHT22;19139;49.372;8.580;2022-10-16T16:07:20;21.70;95.60
32787;DHT22;19139;49.372;8.580;2022-10-16T16:09:46;21.70;95.60
32787;DHT22;19139;49.372;8.580;2022-10-16T16:12:13;21.70;95.60
32787;DHT22;19139;49.372;8.580;2022-10-16T16:14:44;21.70;95.60
32787;DHT22;19139;49.372;8.580;2022-10-16T16:17:12;21.70;95.60
32787;DHT22;19139;49.372;8.580;2022-10-16T16:19:45;21.70;95.60
32787;DHT22;19139;49.372;8.580;2022-10-16T16:22:11;21.70;95.60
32787;DHT22;19139;49.372;8.580;2022-10-16T16:24:43;21.70;95.60
32787;DHT22;19139;49.372;8.580;2022-10-16T16:27:10;21.70;95.80
32787;DHT22;19139;49.372;8.580;2022-10-16T16:29:42;21.70;96.00
32787;DHT22;19139;49.372;8.580;2022-10-16T16:32:13;21.70;96.10
32787;DHT22;19139;49.372;8.580;2022-10-16T16:34:40;21.70;96.30
32787;DHT22;19139;49.372;8.580;2022-10-16T16:37:11;21.70;96.50
32787;DHT22;19139;49.372;8.580;2022-10-16T16:39:42;21.70;96.90
32787;DHT22;19139;49.372;8.580;2022-10-16T16:42:14;21.60;96.90
32787;DHT22;19139;49.372;8.580;2022-10-16T16:44:41;21.70;97.10
32787;DHT22;19139;49.372;8.580;2022-10-16T16:47:12;21.70;97.20
32787;DHT22;19139;49.372;8.580;2022-10-16T16:49:43;21.60;97.50
32787;DHT22;19139;49.372;8.580;2022-10-16T16:52:10;21.70;98.00
32787;DHT22;19139;49.372;8.580;2022-10-16T16:54:41;21.70;98.50
32787;DHT22;19139;49.372;8.580;2022-10-16T16:57:13;21.70;98.70
32787;DHT22;19139;49.372;8.580;2022-10-16T16:59:40;21.70;98.60
32787;DHT22;19139;49.372;8.580;2022-10-16T17:02:11;21.70;99.00
32787;DHT22;19139;49.372;8.580;2022-10-16T17:04:38;21.70;99.00
32787;DHT22;19139;49.372;8.580;2022-10-16T17:07:04;21.70;98.80
32787;DHT22;19139;49.372;8.580;2022-10-16T17:09:32;21.80;98.80
32787;DHT22;19139;49.372;8.580;2022-10-16T17:12:04;21.80;98.90
32787;DHT22;19139;49.372;8.580;2022-10-16T17:14:30;21.80;98.90
32787;DHT22;19139;49.372;8.580;2022-10-16T17:17:02;21.80;98.90
32787;DHT22;19139;49.372;8.580;2022-10-16T17:19:33;21.80;98.90
32787;DHT22;19139;49.372;8.580;2022-10-16T17:22:00;21.80;99.00
32787;DHT22;19139;49.372;8.580;2022-10-16T17:24:32;21.80;98.90
32787;DHT22;19139;49.372;8.580;2022-10-16T17:27:03;21.80;99.00
32787;DHT22;19139;49.372;8.580;2022-10-16T17:29:30;21.80;99.10
32787;DHT22;19139;49.372;8.580;2022-10-16T17:31:56;21.80;99.20
32787;DHT22;19139;49.372;8.580;2022-10-16T17:34:24;21.90;99.30
32787;DHT22;19139;49.372;8.580;2022-10-16T17:36:51;21.90;99.30
32787;DHT22;19139;49.372;8.580;2022-10-16T17:39:23;21.90;99.40
32787;DHT22;19139;49.372;8.580;2022-10-16T17:41:50;21.90;99.50
32787;DHT22;19139;49.372;8.580;2022-10-16T17:44:17;21.90;99.50
32787;DHT22;19139;49.372;8.580;2022-10-16T17:46:48;21.90;99.60